Time;durP1;ratioP1;P1;durP2;ratioP2;P2;SDS_P1;SDS_P2;PMS_P1;PMS_P2;Temp;Humidity;BMP_temperature;BMP_pressure;BME280_temperature;BME280_humidity;BME280_pressure;Samples;Min_cycle;Max_cycle;Signal;HPM_P1;HPM_P2
2023/10/08 00:01:17;;;;;;;3.05;0.60;;;;;;;;;;4951169;28;20043;-66
2023/10/08 00:03:51;;;;;;;7.43;0.80;;;;;;;;;;4953583;28;20057;-66
2023/10/08 00:06:19;;;;;;;2.67;0.88;;;;;;;;;;4954627;28;20114;-64
2023/10/08 00:08:46;;;;;;;3.33;0.80;;;;;;;;;;4954348;28;20046;-66
2023/10/08 00:11:15;;;;;;;4.22;0.70;;;;;;;;;;4969654;28;20550;-65
2023/10/08 00:13:43;;;;;;;3.67;0.70;;;;;;;;;;4953780;28;20046;-66
2023/10/08 00:16:17;;;;;;;2.67;0.68;;;;;;;;;;4963355;28;20051;-68
2023/10/08 00:18:50;;;;;;;6.35;1.00;;;;;;;;;;4950668;28;20101;-64
2023/10/08 00:21:26;;;;;;;2.65;0.75;;;;;;;;;;4953996;28;20504;-64
2023/10/08 00:23:53;;;;;;;3.08;0.75;;;;;;;;;;4954544;28;20062;-64
2023/10/08 00:26:31;;;;;;;2.10;0.70;;;;;;;;;;4956918;28;20031;-66
2023/10/08 00:29:33;;;;;;;6.55;0.80;;;;;;;;;;4992612;28;20042;-65
2023/10/08 00:32:02;;;;;;;5.70;0.80;;;;;;;;;;5002028;28;20038;-68
2023/10/08 00:34:29;;;;;;;4.10;0.80;;;;;;;;;;4992815;28;20683;-67
2023/10/08 00:36:55;;;;;;;6.38;1.02;;;;;;;;;;4971749;28;20094;-67
2023/10/08 00:39:26;;;;;;;5.80;0.88;;;;;;;;;;4987086;28;20558;-67
2023/10/08 00:42:01;;;;;;;3.75;0.90;;;;;;;;;;4987798;28;20042;-66
2023/10/08 00:44:35;;;;;;;2.72;0.80;;;;;;;;;;4991505;28;20053;-67
2023/10/08 00:47:04;;;;;;;2.95;0.73;;;;;;;;;;4974961;28;20926;-69
2023/10/08 00:55:06;;;;;;;2.67;0.70;;;;;;;;;;4987729;28;20187;-68
2023/10/08 00:57:28;;;;;;;3.75;0.80;;;;;;;;;;4988440;28;20048;-69
2023/10/08 00:59:55;;;;;;;4.93;0.95;;;;;;;;;;4968216;28;20054;-61
2023/10/08 01:02:28;;;;;;;4.15;1.00;;;;;;;;;;4964353;28;20041;-68
2023/10/08 01:04:55;;;;;;;4.00;1.42;;;;;;;;;;4970237;28;20050;-69
2023/10/08 01:07:23;;;;;;;5.10;2.00;;;;;;;;;;4958871;28;20058;-67
2023/10/08 01:09:50;;;;;;;4.82;1.10;;;;;;;;;;4964281;28;20182;-65
2023/10/08 01:14:49;;;;;;;5.70;1.27;;;;;;;;;;4954814;28;20157;-70
2023/10/08 01:17:45;;;;;;;2.75;0.90;;;;;;;;;;4978019;28;20049;-66
2023/10/08 01:20:33;;;;;;;4.05;0.88;;;;;;;;;;4984625;28;20042;-67
2023/10/08 01:23:03;;;;;;;9.40;1.02;;;;;;;;;;4958336;28;20056;-67
2023/10/08 01:25:51;;;;;;;3.45;0.90;;;;;;;;;;4989503;28;20084;-67
2023/10/08 01:28:25;;;;;;;3.83;0.87;;;;;;;;;;4990420;28;20038;-67
2023/10/08 01:30:54;;;;;;;4.88;1.10;;;;;;;;;;4988492;28;20143;-67
2023/10/08 01:33:21;;;;;;;8.68;1.20;;;;;;;;;;4986587;28;20049;-66
2023/10/08 01:35:51;;;;;;;4.47;1.15;;;;;;;;;;4989466;28;20093;-67
2023/10/08 01:38:23;;;;;;;4.22;1.10;;;;;;;;;;4982424;28;20048;-67
2023/10/08 01:40:53;;;;;;;6.27;1.20;;;;;;;;;;4989910;28;20049;-67
2023/10/08 01:43:20;;;;;;;4.65;1.20;;;;;;;;;;4989346;28;20658;-66
2023/10/08 01:45:51;;;;;;;2.90;0.90;;;;;;;;;;4989564;28;20177;-66
2023/10/08 01:48:37;;;;;;;4.90;1.15;;;;;;;;;;4989994;28;20057;-66
2023/10/08 01:51:24;;;;;;;3.95;1.23;;;;;;;;;;4975142;28;20125;-66
2023/10/08 01:53:58;;;;;;;7.20;1.33;;;;;;;;;;4973800;28;20157;-66
2023/10/08 01:56:24;;;;;;;6.18;1.40;;;;;;;;;;4956634;28;20047;-65
2023/10/08 01:58:51;;;;;;;4.75;1.15;;;;;;;;;;4953807;28;20089;-66
2023/10/08 02:01:21;;;;;;;3.75;1.08;;;;;;;;;;4969817;28;20425;-66
2023/10/08 02:03:48;;;;;;;6.20;1.02;;;;;;;;;;4972683;28;20503;-64
2023/10/08 02:06:15;;;;;;;4.22;1.08;;;;;;;;;;4972735;28;20107;-66
2023/10/08 02:08:42;;;;;;;4.20;0.95;;;;;;;;;;4972465;28;20065;-66
2023/10/08 02:11:08;;;;;;;5.85;1.30;;;;;;;;;;4974027;28;20038;-66
2023/10/08 02:13:36;;;;;;;6.75;2.13;;;;;;;;;;4973114;28;20046;-67
2023/10/08 02:16:03;;;;;;;5.45;1.95;;;;;;;;;;4975951;28;20042;-66
2023/10/08 02:18:30;;;;;;;5.72;2.17;;;;;;;;;;4973236;28;20052;-59
2023/10/08 02:20:58;;;;;;;9.63;3.30;;;;;;;;;;4973366;28;20141;-58
2023/10/08 02:23:25;;;;;;;13.88;4.05;;;;;;;;;;4954392;28;20136;-61
2023/10/08 02:25:52;;;;;;;11.43;3.10;;;;;;;;;;4954305;28;20041;-59
2023/10/08 02:28:20;;;;;;;8.68;3.03;;;;;;;;;;4953123;28;20089;-59
2023/10/08 02:30:47;;;;;;;8.48;2.80;;;;;;;;;;4953135;28;20146;-59
2023/10/08 02:33:14;;;;;;;6.00;2.10;;;;;;;;;;4953281;28;20045;-60
2023/10/08 02:35:44;;;;;;;8.43;1.80;;;;;;;;;;4952747;28;20079;-61
2023/10/08 02:38:21;;;;;;;5.60;1.60;;;;;;;;;;4951881;28;20038;-60
2023/10/08 02:40:48;;;;;;;6.20;1.83;;;;;;;;;;4959322;28;20051;-60
2023/10/08 02:43:18;;;;;;;4.20;1.40;;;;;;;;;;4950659;28;20047;-60
2023/10/08 02:45:49;;;;;;;5.05;1.63;;;;;;;;;;4951623;28;20039;-59
2023/10/08 02:48:16;;;;;;;8.95;1.42;;;;;;;;;;4952494;28;20042;-59
2023/10/08 02:50:46;;;;;;;5.50;1.58;;;;;;;;;;4950097;28;20544;-59
2023/10/08 02:53:17;;;;;;;5.72;1.42;;;;;;;;;;4951108;28;20047;-59
2023/10/08 02:55:44;;;;;;;3.60;1.10;;;;;;;;;;4952963;28;20110;-61
2023/10/08 02:58:13;;;;;;;6.45;1.20;;;;;;;;;;4952354;28;20042;-60
2023/10/08 03:00:40;;;;;;;5.80;1.50;;;;;;;;;;4950597;28;20591;-59
2023/10/08 03:03:16;;;;;;;3.75;1.05;;;;;;;;;;4952556;28;20053;-58
2023/10/08 03:05:45;;;;;;;4.65;1.35;;;;;;;;;;4951014;28;20511;-60
2023/10/08 03:08:13;;;;;;;10.27;1.10;;;;;;;;;;4952876;28;20041;-60
2023/10/08 03:10:41;;;;;;;3.83;1.05;;;;;;;;;;4952361;28;20552;-59
2023/10/08 03:13:10;;;;;;;4.50;1.20;;;;;;;;;;4951989;28;20141;-61
2023/10/08 03:15:41;;;;;;;5.05;1.20;;;;;;;;;;4952166;28;20053;-60
2023/10/08 03:18:14;;;;;;;6.25;1.20;;;;;;;;;;4953929;28;20553;-61
2023/10/08 03:20:46;;;;;;;5.68;1.23;;;;;;;;;;4955425;28;20101;-61
2023/10/08 03:23:23;;;;;;;4.72;1.25;;;;;;;;;;4955975;28;20042;-59
2023/10/08 03:26:01;;;;;;;6.35;1.55;;;;;;;;;;4955610;28;20038;-60
2023/10/08 03:28:28;;;;;;;7.40;1.10;;;;;;;;;;4956054;28;20045;-58
2023/10/08 03:31:04;;;;;;;7.70;1.27;;;;;;;;;;4956151;28;20034;-60
2023/10/08 03:33:37;;;;;;;3.13;1.00;;;;;;;;;;4954365;28;20586;-63
2023/10/08 03:36:20;;;;;;;4.75;1.35;;;;;;;;;;4956556;28;20191;-58
2023/10/08 03:38:50;;;;;;;2.90;0.93;;;;;;;;;;4956147;28;20066;-59
2023/10/08 03:41:30;;;;;;;7.18;1.50;;;;;;;;;;4956372;28;20451;-59
2023/10/08 03:44:12;;;;;;;4.35;1.20;;;;;;;;;;4961879;28;20147;-63
2023/10/08 03:46:40;;;;;;;3.30;0.88;;;;;;;;;;4954949;28;20042;-62
2023/10/08 03:49:14;;;;;;;8.57;1.42;;;;;;;;;;4956086;28;20059;-62
2023/10/08 03:51:41;;;;;;;5.20;1.23;;;;;;;;;;4967907;28;20131;-60
2023/10/08 03:54:18;;;;;;;5.65;1.40;;;;;;;;;;4952119;28;20042;-61
2023/10/08 03:56:45;;;;;;;5.78;1.45;;;;;;;;;;4953747;28;20070;-59
2023/10/08 03:59:49;;;;;;;6.97;1.27;;;;;;;;;;4956342;28;20077;-61
2023/10/08 04:02:15;;;;;;;5.75;1.67;;;;;;;;;;4959201;28;20039;-62
2023/10/08 04:04:53;;;;;;;8.20;1.27;;;;;;;;;;4955174;28;20042;-61
2023/10/08 04:07:38;;;;;;;5.45;1.20;;;;;;;;;;4955867;28;20122;-62
2023/10/08 04:12:35;;;;;;;6.05;1.15;;;;;;;;;;4954569;28;20050;-60
2023/10/08 04:15:07;;;;;;;5.18;1.02;;;;;;;;;;4955085;28;21095;-60
2023/10/08 04:17:43;;;;;;;7.78;1.20;;;;;;;;;;4954190;28;20039;-59
2023/10/08 04:21:00;;;;;;;8.02;1.20;;;;;;;;;;4954827;28;20329;-62
2023/10/08 04:23:01;;;;;;;3.75;0.93;;;;;;;;;;4969245;28;20468;-59
2023/10/08 04:25:28;;;;;;;3.92;1.23;;;;;;;;;;4957202;28;20054;-61
2023/10/08 04:27:58;;;;;;;3.95;1.05;;;;;;;;;;4955957;28;20541;-58
2023/10/08 04:30:32;;;;;;;4.80;1.30;;;;;;;;;;4953488;28;20039;-58
2023/10/08 04:33:06;;;;;;;5.47;1.20;;;;;;;;;;4955878;28;20724;-59
2023/10/08 04:35:36;;;;;;;4.07;1.20;;;;;;;;;;4955329;28;20155;-59
2023/10/08 04:38:08;;;;;;;3.03;1.10;;;;;;;;;;4962590;28;20072;-59
2023/10/08 04:40:48;;;;;;;4.13;1.58;;;;;;;;;;4984439;28;20137;-61
2023/10/08 04:46:21;;;;;;;7.30;1.58;;;;;;;;;;4961373;28;20042;-59
2023/10/08 04:48:49;;;;;;;3.28;1.00;;;;;;;;;;4966367;28;20261;-61
2023/10/08 04:51:17;;;;;;;4.97;1.10;;;;;;;;;;4959133;28;20054;-62
2023/10/08 04:53:47;;;;;;;4.75;1.42;;;;;;;;;;4949008;28;20399;-59
2023/10/08 04:56:16;;;;;;;3.42;1.50;;;;;;;;;;4955721;28;20039;-61
2023/10/08 04:58:46;;;;;;;7.45;1.45;;;;;;;;;;4961810;28;20045;-59
2023/10/08 05:01:17;;;;;;;5.88;1.25;;;;;;;;;;4957092;28;20074;-60
2023/10/08 05:04:06;;;;;;;3.55;1.20;;;;;;;;;;4953714;28;20134;-59
2023/10/08 05:09:22;;;;;;;7.20;1.33;;;;;;;;;;4955064;28;20042;-60
2023/10/08 05:12:08;;;;;;;5.53;1.40;;;;;;;;;;4952806;28;20051;-58
2023/10/08 05:14:38;;;;;;;4.10;1.50;;;;;;;;;;4948140;28;20141;-60
2023/10/08 05:28:09;;;;;;;3.72;1.30;;;;;;;;;;4954061;28;20391;-58
2023/10/08 05:30:28;;;;;;;5.78;1.23;;;;;;;;;;4953354;28;20590;-59
2023/10/08 05:39:00;;;;;;;8.25;1.60;;;;;;;;;;4954215;28;20035;-60
2023/10/08 05:49:03;;;;;;;4.85;1.23;;;;;;;;;;4961580;28;20516;-58
2023/10/08 06:15:48;;;;;;;3.92;1.45;;;;;;;;;;4953050;28;20097;-60
2023/10/08 06:18:25;;;;;;;5.45;1.42;;;;;;;;;;4953251;28;20512;-61
2023/10/08 06:21:15;;;;;;;5.68;1.95;;;;;;;;;;4952394;28;20037;-59
2023/10/08 06:23:46;;;;;;;6.75;1.67;;;;;;;;;;4951521;28;20055;-57
2023/10/08 06:28:41;;;;;;;7.68;1.40;;;;;;;;;;4952434;28;20410;-59
2023/10/08 06:31:23;;;;;;;5.63;1.45;;;;;;;;;;4952237;28;20035;-58
2023/10/08 06:33:50;;;;;;;8.25;2.10;;;;;;;;;;4971566;28;20157;-58
2023/10/08 06:36:17;;;;;;;5.65;1.92;;;;;;;;;;4965825;28;20035;-58
2023/10/08 06:38:49;;;;;;;4.28;1.88;;;;;;;;;;4951199;28;20050;-59
2023/10/08 06:41:19;;;;;;;8.30;2.20;;;;;;;;;;4952659;28;20038;-59
2023/10/08 06:43:49;;;;;;;6.15;1.83;;;;;;;;;;4956661;28;20156;-62
2023/10/08 06:46:19;;;;;;;7.47;2.22;;;;;;;;;;4965825;28;20042;-61
2023/10/08 06:48:49;;;;;;;8.55;1.80;;;;;;;;;;4952171;28;20046;-61
2023/10/08 06:51:17;;;;;;;8.15;2.15;;;;;;;;;;4951864;28;20043;-57
2023/10/08 06:53:45;;;;;;;5.60;2.30;;;;;;;;;;4950974;28;20068;-61
2023/10/08 06:56:12;;;;;;;5.35;2.30;;;;;;;;;;4952787;28;20039;-58
2023/10/08 06:58:45;;;;;;;3.80;1.90;;;;;;;;;;4950448;28;20043;-57
2023/10/08 07:01:13;;;;;;;10.27;1.60;;;;;;;;;;4953250;28;20133;-58
2023/10/08 07:03:39;;;;;;;5.90;2.15;;;;;;;;;;4950802;28;20550;-58
2023/10/08 07:09:05;;;;;;;7.22;2.20;;;;;;;;;;4952490;28;20070;-58
2023/10/08 07:11:35;;;;;;;9.52;2.25;;;;;;;;;;4947263;28;20039;-59
2023/10/08 07:14:03;;;;;;;6.75;2.22;;;;;;;;;;4952414;28;20131;-59
2023/10/08 07:16:30;;;;;;;9.48;2.20;;;;;;;;;;4951027;28;20137;-57
2023/10/08 07:19:15;;;;;;;14.15;2.85;;;;;;;;;;4952365;28;20129;-58
2023/10/08 07:21:45;;;;;;;9.23;2.60;;;;;;;;;;4950290;28;20240;-58
2023/10/08 07:24:21;;;;;;;9.57;3.00;;;;;;;;;;4949846;28;20074;-58
2023/10/08 07:26:49;;;;;;;11.43;2.95;;;;;;;;;;4949227;28;20126;-58
2023/10/08 07:29:17;;;;;;;10.10;2.30;;;;;;;;;;4948362;28;20047;-58
2023/10/08 07:31:52;;;;;;;10.77;2.70;;;;;;;;;;4946842;28;20071;-58
2023/10/08 07:34:25;;;;;;;7.43;2.40;;;;;;;;;;4934966;28;20047;-61
2023/10/08 07:36:52;;;;;;;8.15;2.75;;;;;;;;;;4949340;28;20046;-58
2023/10/08 07:41:56;;;;;;;9.40;2.67;;;;;;;;;;4949119;28;20069;-59
2023/10/08 07:44:23;;;;;;;8.60;2.38;;;;;;;;;;4947480;28;20050;-58
2023/10/08 07:46:50;;;;;;;5.53;2.20;;;;;;;;;;4950113;28;20572;-62
2023/10/08 07:49:17;;;;;;;9.27;2.08;;;;;;;;;;4948315;28;20131;-59
2023/10/08 07:51:53;;;;;;;6.97;2.30;;;;;;;;;;4947598;28;20086;-59
2023/10/08 07:54:34;;;;;;;7.13;2.35;;;;;;;;;;4950336;28;20374;-59
2023/10/08 07:57:12;;;;;;;8.07;2.78;;;;;;;;;;4953621;28;20049;-61
2023/10/08 07:59:46;;;;;;;8.48;2.30;;;;;;;;;;4967160;28;20883;-58
2023/10/08 08:02:13;;;;;;;7.47;2.47;;;;;;;;;;4952409;28;20062;-61
2023/10/08 08:04:41;;;;;;;9.25;2.97;;;;;;;;;;4953258;28;20117;-60
2023/10/08 08:07:15;;;;;;;10.52;2.58;;;;;;;;;;4955835;28;20322;-64
2023/10/08 08:09:50;;;;;;;8.82;2.65;;;;;;;;;;4955173;28;20038;-57
2023/10/08 08:12:19;;;;;;;7.30;2.35;;;;;;;;;;4955364;28;20246;-59
2023/10/08 08:14:45;;;;;;;11.68;2.67;;;;;;;;;;4953712;28;20946;-60
2023/10/08 08:17:15;;;;;;;11.75;3.05;;;;;;;;;;4951163;28;20049;-61
2023/10/08 08:19:44;;;;;;;13.10;3.05;;;;;;;;;;4954505;28;20141;-58
2023/10/08 08:22:21;;;;;;;7.68;2.88;;;;;;;;;;4951252;28;20047;-58
2023/10/08 08:25:05;;;;;;;8.07;3.10;;;;;;;;;;4962532;28;20046;-57
2023/10/08 08:27:31;;;;;;;9.00;3.00;;;;;;;;;;4960605;28;20131;-58
2023/10/08 08:30:10;;;;;;;8.55;2.83;;;;;;;;;;4958539;28;20113;-61
2023/10/08 08:32:43;;;;;;;11.35;3.10;;;;;;;;;;4948800;28;20038;-61
2023/10/08 08:35:10;;;;;;;11.85;3.15;;;;;;;;;;4955220;28;20237;-57
2023/10/08 08:37:38;;;;;;;7.43;2.90;;;;;;;;;;4954645;28;20124;-58
2023/10/08 08:40:17;;;;;;;6.35;2.47;;;;;;;;;;4969490;28;20807;-58
2023/10/08 08:42:47;;;;;;;9.75;2.67;;;;;;;;;;4953693;28;20091;-60
2023/10/08 08:45:14;;;;;;;8.10;3.20;;;;;;;;;;4955701;28;20043;-57
2023/10/08 08:47:41;;;;;;;13.27;2.85;;;;;;;;;;4955158;28;20057;-60
2023/10/08 08:50:08;;;;;;;8.05;3.10;;;;;;;;;;4956165;28;20504;-58
2023/10/08 08:52:36;;;;;;;9.27;2.75;;;;;;;;;;4962703;28;20046;-60
2023/10/08 08:55:14;;;;;;;7.85;2.70;;;;;;;;;;4962632;28;20081;-58
2023/10/08 08:57:43;;;;;;;8.07;2.70;;;;;;;;;;4954912;28;20424;-56
2023/10/08 09:00:13;;;;;;;10.48;3.10;;;;;;;;;;4957956;28;20384;-58
2023/10/08 09:02:40;;;;;;;10.52;3.20;;;;;;;;;;4965202;28;20098;-61
2023/10/08 09:05:23;;;;;;;11.68;3.13;;;;;;;;;;4968297;28;20113;-61
2023/10/08 09:07:52;;;;;;;9.13;2.60;;;;;;;;;;4976643;28;20370;-58
2023/10/08 09:10:26;;;;;;;9.60;3.38;;;;;;;;;;4954313;28;20050;-56
2023/10/08 09:12:53;;;;;;;8.00;3.05;;;;;;;;;;4972070;28;20499;-59
2023/10/08 09:15:22;;;;;;;10.65;2.83;;;;;;;;;;4956889;28;20034;-57
2023/10/08 09:17:51;;;;;;;12.43;2.83;;;;;;;;;;4952764;28;20604;-56
2023/10/08 09:20:20;;;;;;;10.65;3.05;;;;;;;;;;4967732;28;20051;-58
2023/10/08 09:22:47;;;;;;;8.90;3.25;;;;;;;;;;4951520;28;20046;-57
2023/10/08 09:25:32;;;;;;;9.70;2.70;;;;;;;;;;4953888;28;20043;-58
2023/10/08 09:27:59;;;;;;;5.80;2.97;;;;;;;;;;4954883;28;20051;-59
2023/10/08 09:30:25;;;;;;;8.68;3.28;;;;;;;;;;4960462;28;20037;-58
2023/10/08 09:32:52;;;;;;;9.32;3.35;;;;;;;;;;4952664;28;20491;-60
2023/10/08 09:35:19;;;;;;;6.07;2.60;;;;;;;;;;4952512;28;20445;-60
2023/10/08 09:37:46;;;;;;;8.07;2.70;;;;;;;;;;4952047;28;20042;-58
2023/10/08 09:40:20;;;;;;;5.60;2.78;;;;;;;;;;4952453;28;20050;-57
2023/10/08 09:42:47;;;;;;;8.45;3.03;;;;;;;;;;4952216;28;20038;-60
2023/10/08 09:45:14;;;;;;;9.02;3.47;;;;;;;;;;4952929;28;20051;-57
2023/10/08 09:47:43;;;;;;;10.95;3.05;;;;;;;;;;4948604;28;20054;-56
2023/10/08 09:50:11;;;;;;;10.00;2.85;;;;;;;;;;4952561;28;20543;-58
2023/10/08 09:52:44;;;;;;;12.02;3.00;;;;;;;;;;4950805;28;20043;-60
2023/10/08 09:55:11;;;;;;;9.27;3.00;;;;;;;;;;4952162;28;20154;-60
2023/10/08 09:57:38;;;;;;;6.88;3.15;;;;;;;;;;4952323;28;20455;-65
2023/10/08 10:00:30;;;;;;;12.30;3.10;;;;;;;;;;4979732;28;20561;-59
2023/10/08 10:03:01;;;;;;;9.45;2.80;;;;;;;;;;4988338;28;20102;-58
2023/10/08 10:05:31;;;;;;;10.75;3.13;;;;;;;;;;4985769;28;20085;-62
2023/10/08 10:07:58;;;;;;;9.38;3.00;;;;;;;;;;4987669;28;20050;-59
2023/10/08 10:10:30;;;;;;;7.75;2.80;;;;;;;;;;4987199;28;20870;-58
2023/10/08 10:13:01;;;;;;;7.03;3.00;;;;;;;;;;4987380;28;20116;-58
2023/10/08 10:15:31;;;;;;;8.45;3.03;;;;;;;;;;4971807;28;20208;-61
2023/10/08 10:18:10;;;;;;;8.13;3.17;;;;;;;;;;4972435;28;20038;-59
2023/10/08 10:20:41;;;;;;;6.75;2.88;;;;;;;;;;4986652;28;20041;-60
2023/10/08 10:23:27;;;;;;;8.60;2.95;;;;;;;;;;4985661;28;20042;-58
2023/10/08 10:25:54;;;;;;;9.15;2.75;;;;;;;;;;4987190;28;20566;-58
2023/10/08 10:28:24;;;;;;;7.95;2.60;;;;;;;;;;4987039;28;20123;-61
2023/10/08 10:30:52;;;;;;;8.32;2.95;;;;;;;;;;4971959;28;20038;-60
2023/10/08 10:33:19;;;;;;;10.75;3.05;;;;;;;;;;4972210;28;20451;-58
2023/10/08 10:35:54;;;;;;;6.90;3.00;;;;;;;;;;4990816;28;20045;-59
2023/10/08 10:38:26;;;;;;;9.63;3.08;;;;;;;;;;4975545;28;20407;-58
2023/10/08 10:40:58;;;;;;;9.10;3.10;;;;;;;;;;4963775;28;20051;-58
2023/10/08 10:43:39;;;;;;;9.13;2.88;;;;;;;;;;4950802;28;20047;-69
2023/10/08 10:46:29;;;;;;;14.32;3.15;;;;;;;;;;4952252;28;20197;-62
2023/10/08 10:51:52;;;;;;;9.07;3.20;;;;;;;;;;4943215;28;20051;-60
2023/10/08 10:54:23;;;;;;;6.18;2.83;;;;;;;;;;4948360;28;20042;-62
2023/10/08 10:57:17;;;;;;;7.60;3.22;;;;;;;;;;4979597;28;20039;-60
2023/10/08 10:59:37;;;;;;;10.82;3.33;;;;;;;;;;4950985;28;20055;-59
2023/10/08 11:04:52;;;;;;;6.03;2.67;;;;;;;;;;4951236;28;20423;-59
2023/10/08 11:07:20;;;;;;;7.43;3.05;;;;;;;;;;4952771;28;20483;-59
2023/10/08 11:09:52;;;;;;;8.43;2.95;;;;;;;;;;4950422;28;20710;-62
2023/10/08 11:12:22;;;;;;;6.47;2.70;;;;;;;;;;4966923;28;20117;-59
2023/10/08 11:14:53;;;;;;;10.00;2.90;;;;;;;;;;4959504;28;20053;-62
2023/10/08 11:17:24;;;;;;;10.27;2.63;;;;;;;;;;4952091;28;20148;-64
2023/10/08 11:19:51;;;;;;;6.63;2.45;;;;;;;;;;4952965;28;20043;-58
2023/10/08 11:22:22;;;;;;;5.63;2.50;;;;;;;;;;4952054;28;20078;-59
2023/10/08 11:24:53;;;;;;;6.82;2.33;;;;;;;;;;4970108;28;20054;-61
2023/10/08 11:27:35;;;;;;;10.85;2.50;;;;;;;;;;4971058;28;20042;-59
2023/10/08 11:30:01;;;;;;;4.80;2.13;;;;;;;;;;4951977;28;20044;-60
2023/10/08 11:32:32;;;;;;;6.68;2.22;;;;;;;;;;4950715;28;20167;-59
2023/10/08 11:35:15;;;;;;;6.75;2.45;;;;;;;;;;4952084;28;20452;-59
2023/10/08 11:37:48;;;;;;;9.00;2.50;;;;;;;;;;4952397;28;20054;-58
2023/10/08 11:40:48;;;;;;;6.97;2.33;;;;;;;;;;4951291;28;20193;-58
2023/10/08 11:43:15;;;;;;;6.20;2.22;;;;;;;;;;4955406;28;20492;-58
2023/10/08 11:45:50;;;;;;;6.30;1.95;;;;;;;;;;4956210;28;20047;-63
2023/10/08 11:48:28;;;;;;;5.75;2.15;;;;;;;;;;4955043;28;20313;-59
2023/10/08 11:51:01;;;;;;;8.77;2.28;;;;;;;;;;4953314;28;20050;-60
2023/10/08 11:53:28;;;;;;;12.07;2.40;;;;;;;;;;4956488;28;20047;-61
2023/10/08 11:55:57;;;;;;;4.97;1.85;;;;;;;;;;4954702;28;20526;-59
2023/10/08 11:58:37;;;;;;;7.70;2.38;;;;;;;;;;4953134;28;20405;-61
2023/10/08 12:01:04;;;;;;;8.40;2.40;;;;;;;;;;4957219;28;20043;-58
2023/10/08 12:03:31;;;;;;;14.18;2.53;;;;;;;;;;4954855;28;20043;-60
2023/10/08 12:05:59;;;;;;;7.95;2.67;;;;;;;;;;4956093;28;20864;-58
2023/10/08 12:08:27;;;;;;;9.10;2.50;;;;;;;;;;4956837;28;20039;-60
2023/10/08 12:10:54;;;;;;;7.57;2.25;;;;;;;;;;4954644;28;20101;-57
2023/10/08 12:13:28;;;;;;;6.28;2.50;;;;;;;;;;4954273;28;20512;-58
2023/10/08 12:16:12;;;;;;;7.75;2.17;;;;;;;;;;4947342;28;20119;-60
2023/10/08 12:18:43;;;;;;;12.65;2.55;;;;;;;;;;4966915;28;20047;-62
2023/10/08 12:21:10;;;;;;;10.00;2.40;;;;;;;;;;4953931;28;20165;-62
2023/10/08 12:23:38;;;;;;;16.55;2.65;;;;;;;;;;4960383;28;20027;-62
2023/10/08 12:26:07;;;;;;;8.55;2.28;;;;;;;;;;4965448;28;20057;-59
2023/10/08 12:28:34;;;;;;;6.70;2.42;;;;;;;;;;4948231;28;20427;-62
2023/10/08 12:31:01;;;;;;;6.18;2.40;;;;;;;;;;4954107;28;20054;-66
2023/10/08 12:33:29;;;;;;;5.68;2.35;;;;;;;;;;4955046;28;20043;-58
2023/10/08 12:35:57;;;;;;;5.40;2.20;;;;;;;;;;4955441;28;21751;-57
2023/10/08 12:38:24;;;;;;;9.90;2.58;;;;;;;;;;4953827;28;20039;-58
2023/10/08 12:40:53;;;;;;;11.45;2.80;;;;;;;;;;4941593;28;20058;-58
2023/10/08 12:43:21;;;;;;;10.95;2.75;;;;;;;;;;4956102;28;20038;-58
2023/10/08 12:45:54;;;;;;;7.97;2.22;;;;;;;;;;4954398;28;20504;-60
2023/10/08 12:48:21;;;;;;;8.18;2.60;;;;;;;;;;4953934;28;20460;-58
2023/10/08 12:50:58;;;;;;;4.85;2.10;;;;;;;;;;4953044;28;20046;-57
2023/10/08 12:53:36;;;;;;;10.02;2.47;;;;;;;;;;4945503;28;20136;-61
2023/10/08 12:56:14;;;;;;;9.25;2.50;;;;;;;;;;4967627;28;20039;-61
2023/10/08 12:58:44;;;;;;;9.52;2.30;;;;;;;;;;4955262;28;20122;-58
2023/10/08 13:01:14;;;;;;;5.78;2.35;;;;;;;;;;4952544;28;20035;-57
2023/10/08 13:04:00;;;;;;;6.18;2.20;;;;;;;;;;4989698;28;20160;-58
2023/10/08 13:06:29;;;;;;;5.35;2.03;;;;;;;;;;4988341;28;20461;-59
2023/10/08 13:08:56;;;;;;;7.75;2.38;;;;;;;;;;4989493;28;20061;-61
2023/10/08 13:11:24;;;;;;;10.95;2.17;;;;;;;;;;4988086;28;20651;-59
2023/10/08 13:13:56;;;;;;;12.90;2.13;;;;;;;;;;4986855;28;20125;-62
2023/10/08 13:16:23;;;;;;;5.57;1.98;;;;;;;;;;4986909;28;21765;-59
2023/10/08 13:18:50;;;;;;;6.00;1.85;;;;;;;;;;4989727;28;20725;-58
2023/10/08 13:21:19;;;;;;;13.10;2.30;;;;;;;;;;4971475;28;20918;-58
2023/10/08 13:23:46;;;;;;;13.18;2.13;;;;;;;;;;5010361;28;20664;-59
2023/10/08 13:26:16;;;;;;;6.15;1.77;;;;;;;;;;4991346;28;20054;-58
2023/10/08 13:28:44;;;;;;;6.22;1.83;;;;;;;;;;4989867;28;20041;-58
2023/10/08 13:31:11;;;;;;;4.55;1.63;;;;;;;;;;5000989;28;20569;-58
2023/10/08 13:33:48;;;;;;;7.07;1.92;;;;;;;;;;5001438;28;20108;-58
2023/10/08 13:36:16;;;;;;;4.93;1.90;;;;;;;;;;4961177;28;20055;-60
2023/10/08 13:38:45;;;;;;;11.27;2.00;;;;;;;;;;4975233;28;20129;-61
2023/10/08 13:41:16;;;;;;;10.13;1.73;;;;;;;;;;4986148;28;21374;-58
2023/10/08 13:43:46;;;;;;;6.68;1.67;;;;;;;;;;4979846;28;20140;-56
2023/10/08 13:46:17;;;;;;;12.90;1.80;;;;;;;;;;4956117;28;20047;-57
2023/10/08 13:48:51;;;;;;;6.15;1.58;;;;;;;;;;4951665;28;20110;-58
2023/10/08 13:51:25;;;;;;;4.70;1.70;;;;;;;;;;4953299;28;20595;-60
2023/10/08 13:53:52;;;;;;;4.60;1.40;;;;;;;;;;4949254;28;20500;-59
2023/10/08 13:56:30;;;;;;;7.47;1.50;;;;;;;;;;4952786;28;20046;-57
2023/10/08 13:59:19;;;;;;;3.78;1.40;;;;;;;;;;4951190;28;20261;-59
2023/10/08 14:01:47;;;;;;;7.18;1.73;;;;;;;;;;4953607;28;20125;-59
2023/10/08 14:04:19;;;;;;;6.32;2.08;;;;;;;;;;4971831;28;21267;-60
2023/10/08 14:06:54;;;;;;;5.28;1.55;;;;;;;;;;4951210;28;20332;-57
2023/10/08 14:09:22;;;;;;;6.55;2.10;;;;;;;;;;4951554;28;20058;-59
2023/10/08 14:11:52;;;;;;;10.13;1.90;;;;;;;;;;4952164;28;20105;-61
2023/10/08 14:14:23;;;;;;;4.60;1.38;;;;;;;;;;4952761;28;20059;-57
2023/10/08 14:16:54;;;;;;;3.55;1.40;;;;;;;;;;4968005;28;20038;-60
2023/10/08 14:19:28;;;;;;;5.28;1.50;;;;;;;;;;4948636;28;20618;-57
2023/10/08 14:22:08;;;;;;;4.60;1.77;;;;;;;;;;4947217;28;20066;-60
2023/10/08 14:24:37;;;;;;;5.50;1.42;;;;;;;;;;4948612;28;20039;-58
2023/10/08 14:27:09;;;;;;;7.03;1.45;;;;;;;;;;4948524;28;20043;-58
2023/10/08 14:29:40;;;;;;;5.75;1.33;;;;;;;;;;4945474;28;20082;-58
2023/10/08 14:32:10;;;;;;;5.05;1.30;;;;;;;;;;4945764;28;20057;-58
2023/10/08 14:43:15;;;;;;;4.13;1.40;;;;;;;;;;4920462;28;20051;-58
2023/10/08 14:45:46;;;;;;;7.32;1.40;;;;;;;;;;4926706;28;20051;-58
2023/10/08 14:48:13;;;;;;;6.18;1.70;;;;;;;;;;4916023;28;20497;-58
2023/10/08 14:50:41;;;;;;;6.40;1.45;;;;;;;;;;4912745;28;20810;-61
2023/10/08 14:53:08;;;;;;;5.22;1.60;;;;;;;;;;4928964;28;20054;-59
2023/10/08 14:55:36;;;;;;;5.38;1.92;;;;;;;;;;4926752;28;20051;-63
2023/10/08 14:58:10;;;;;;;6.53;1.80;;;;;;;;;;4927744;28;20758;-62
2023/10/08 15:00:37;;;;;;;15.75;2.50;;;;;;;;;;4952557;28;20039;-61
2023/10/08 15:03:04;;;;;;;10.27;1.80;;;;;;;;;;4965848;28;20261;-61
2023/10/08 15:05:31;;;;;;;4.65;1.40;;;;;;;;;;4966577;28;20046;-60
2023/10/08 15:07:58;;;;;;;9.45;1.83;;;;;;;;;;4968031;28;20038;-59
2023/10/08 15:10:25;;;;;;;9.20;1.85;;;;;;;;;;4966343;28;20042;-58
2023/10/08 15:12:53;;;;;;;8.90;2.08;;;;;;;;;;4967877;28;20525;-57
2023/10/08 15:15:19;;;;;;;9.55;2.20;;;;;;;;;;4971149;28;20152;-60
2023/10/08 15:17:48;;;;;;;5.43;1.67;;;;;;;;;;4962394;28;20077;-60
2023/10/08 15:20:23;;;;;;;5.32;1.42;;;;;;;;;;4962778;28;20054;-59
2023/10/08 15:22:50;;;;;;;3.25;1.25;;;;;;;;;;4970349;28;20642;-62
2023/10/08 15:25:18;;;;;;;6.03;1.40;;;;;;;;;;4955093;28;20051;-65
2023/10/08 15:27:46;;;;;;;5.53;1.38;;;;;;;;;;4938581;28;20624;-58
2023/10/08 15:30:17;;;;;;;4.95;1.17;;;;;;;;;;4951929;28;20131;-60
2023/10/08 15:32:48;;;;;;;5.15;1.02;;;;;;;;;;4967882;28;20508;-60
2023/10/08 15:35:17;;;;;;;3.40;1.00;;;;;;;;;;4954500;28;20353;-59
2023/10/08 15:37:43;;;;;;;2.78;0.93;;;;;;;;;;4953460;28;20137;-60
2023/10/08 15:40:20;;;;;;;5.85;1.30;;;;;;;;;;4954770;28;20074;-60
2023/10/08 15:42:51;;;;;;;3.95;1.00;;;;;;;;;;4969271;28;20514;-60
2023/10/08 15:45:18;;;;;;;5.22;1.08;;;;;;;;;;4954396;28;20697;-60
2023/10/08 15:47:44;;;;;;;2.58;0.90;;;;;;;;;;4952768;28;20039;-60
2023/10/08 15:50:11;;;;;;;3.30;1.00;;;;;;;;;;4954614;28;20039;-60
2023/10/08 15:52:38;;;;;;;3.78;0.95;;;;;;;;;;4955227;28;20053;-62
2023/10/08 15:55:05;;;;;;;3.55;1.00;;;;;;;;;;4955560;28;20125;-58
2023/10/08 15:57:32;;;;;;;3.80;0.98;;;;;;;;;;4950137;28;20045;-62
2023/10/08 15:59:59;;;;;;;4.50;1.02;;;;;;;;;;4955281;28;20047;-59
2023/10/08 16:02:25;;;;;;;3.13;1.00;;;;;;;;;;4954969;28;21799;-62
2023/10/08 16:04:54;;;;;;;3.03;0.82;;;;;;;;;;4966644;28;20077;-62
2023/10/08 16:07:21;;;;;;;5.28;1.08;;;;;;;;;;4965961;28;20046;-59
2023/10/08 16:09:47;;;;;;;3.60;0.90;;;;;;;;;;4954600;28;20062;-62
2023/10/08 16:12:14;;;;;;;3.58;1.00;;;;;;;;;;4955232;28;20212;-59
2023/10/08 16:14:41;;;;;;;5.15;0.85;;;;;;;;;;4956501;28;20035;-59
2023/10/08 16:17:11;;;;;;;2.92;0.85;;;;;;;;;;4954170;28;20046;-58
2023/10/08 16:19:37;;;;;;;4.15;0.90;;;;;;;;;;4953842;28;20035;-61
2023/10/08 16:22:04;;;;;;;3.15;0.88;;;;;;;;;;4954218;28;20046;-59
2023/10/08 16:24:31;;;;;;;3.22;0.90;;;;;;;;;;4952891;28;20086;-60
2023/10/08 16:26:58;;;;;;;3.58;0.90;;;;;;;;;;4953699;28;20047;-59
2023/10/08 16:29:24;;;;;;;2.25;0.88;;;;;;;;;;4953576;28;20053;-61
2023/10/08 16:31:51;;;;;;;3.42;1.13;;;;;;;;;;4953942;28;20671;-61